sensor_id;sensor_type;location;lat;lon;timestamp;temperature;humidity
21891;DHT22;11110;52.386;16.940;2023-03-24T00:01:40;25.80;40.80
21891;DHT22;11110;52.386;16.940;2023-03-24T00:04:10;25.80;40.80
21891;DHT22;11110;52.386;16.940;2023-03-24T00:06:39;25.80;40.80
21891;DHT22;11110;52.386;16.940;2023-03-24T00:09:07;25.70;40.80
21891;DHT22;11110;52.386;16.940;2023-03-24T00:11:36;25.70;40.90
21891;DHT22;11110;52.386;16.940;2023-03-24T00:14:06;25.60;40.90
21891;DHT22;11110;52.386;16.940;2023-03-24T00:16:38;25.60;41.00
21891;DHT22;11110;52.386;16.940;2023-03-24T00:19:09;25.60;41.10
21891;DHT22;11110;52.386;16.940;2023-03-24T00:21:39;25.40;41.00
21891;DHT22;11110;52.386;16.940;2023-03-24T00:24:10;25.50;41.10
21891;DHT22;11110;52.386;16.940;2023-03-24T00:26:40;25.50;41.20
21891;DHT22;11110;52.386;16.940;2023-03-24T00:29:10;25.50;41.30
21891;DHT22;11110;52.386;16.940;2023-03-24T00:31:40;25.50;41.20
21891;DHT22;11110;52.386;16.940;2023-03-24T00:34:09;25.40;41.20
21891;DHT22;11110;52.386;16.940;2023-03-24T00:36:39;25.40;41.20
21891;DHT22;11110;52.386;16.940;2023-03-24T00:39:08;25.40;41.30
21891;DHT22;11110;52.386;16.940;2023-03-24T00:41:37;25.40;41.30
21891;DHT22;11110;52.386;16.940;2023-03-24T00:44:05;25.40;41.40
21891;DHT22;11110;52.386;16.940;2023-03-24T00:46:37;25.30;41.40
21891;DHT22;11110;52.386;16.940;2023-03-24T00:49:12;25.30;41.40
21891;DHT22;11110;52.386;16.940;2023-03-24T00:51:42;25.30;41.60
21891;DHT22;11110;52.386;16.940;2023-03-24T00:54:12;25.30;41.60
21891;DHT22;11110;52.386;16.940;2023-03-24T00:56:42;25.20;41.70
21891;DHT22;11110;52.386;16.940;2023-03-24T00:59:16;25.20;41.60
21891;DHT22;11110;52.386;16.940;2023-03-24T01:01:46;25.20;41.70
21891;DHT22;11110;52.386;16.940;2023-03-24T01:04:15;25.10;41.80
21891;DHT22;11110;52.386;16.940;2023-03-24T01:06:44;25.10;41.80
21891;DHT22;11110;52.386;16.940;2023-03-24T01:09:13;25.10;41.90
21891;DHT22;11110;52.386;16.940;2023-03-24T01:11:42;25.10;41.90
21891;DHT22;11110;52.386;16.940;2023-03-24T01:14:11;25.10;42.00
21891;DHT22;11110;52.386;16.940;2023-03-24T01:16:40;25.00;41.90
21891;DHT22;11110;52.386;16.940;2023-03-24T01:19:11;25.00;41.90
21891;DHT22;11110;52.386;16.940;2023-03-24T01:21:40;25.10;42.00
21891;DHT22;11110;52.386;16.940;2023-03-24T01:24:10;25.10;42.00
21891;DHT22;11110;52.386;16.940;2023-03-24T01:26:40;25.00;42.00
21891;DHT22;11110;52.386;16.940;2023-03-24T01:29:09;25.00;42.10
21891;DHT22;11110;52.386;16.940;2023-03-24T01:31:38;25.00;42.10
21891;DHT22;11110;52.386;16.940;2023-03-24T01:34:07;25.10;42.20
21891;DHT22;11110;52.386;16.940;2023-03-24T01:36:37;25.00;42.10
21891;DHT22;11110;52.386;16.940;2023-03-24T01:39:06;25.00;42.10
21891;DHT22;11110;52.386;16.940;2023-03-24T01:41:37;25.00;42.10
21891;DHT22;11110;52.386;16.940;2023-03-24T01:44:30;25.00;42.20
21891;DHT22;11110;52.386;16.940;2023-03-24T01:47:00;25.00;42.20
21891;DHT22;11110;52.386;16.940;2023-03-24T01:49:32;25.00;42.30
21891;DHT22;11110;52.386;16.940;2023-03-24T01:52:07;25.00;42.40
21891;DHT22;11110;52.386;16.940;2023-03-24T01:54:41;25.00;42.40
21891;DHT22;11110;52.386;16.940;2023-03-24T01:57:15;25.00;42.30
21891;DHT22;11110;52.386;16.940;2023-03-24T01:59:49;24.90;42.40
21891;DHT22;11110;52.386;16.940;2023-03-24T02:02:43;25.00;42.50
21891;DHT22;11110;52.386;16.940;2023-03-24T02:08:51;24.90;42.60
21891;DHT22;11110;52.386;16.940;2023-03-24T02:11:22;25.00;42.60
21891;DHT22;11110;52.386;16.940;2023-03-24T02:13:56;24.90;42.50
21891;DHT22;11110;52.386;16.940;2023-03-24T02:16:39;24.90;42.60
21891;DHT22;11110;52.386;16.940;2023-03-24T02:19:31;24.90;42.60
21891;DHT22;11110;52.386;16.940;2023-03-24T02:22:38;25.00;42.60
21891;DHT22;11110;52.386;16.940;2023-03-24T02:25:48;24.90;42.60
21891;DHT22;11110;52.386;16.940;2023-03-24T02:28:27;24.80;42.70
21891;DHT22;11110;52.386;16.940;2023-03-24T02:31:20;24.80;42.80
21891;DHT22;11110;52.386;16.940;2023-03-24T02:34:18;24.80;42.90
21891;DHT22;11110;52.386;16.940;2023-03-24T02:40:06;24.60;43.00
21891;DHT22;11110;52.386;16.940;2023-03-24T02:42:45;24.60;43.10
21891;DHT22;11110;52.386;16.940;2023-03-24T02:45:25;24.60;43.20
21891;DHT22;11110;52.386;16.940;2023-03-24T02:48:16;24.60;43.20
21891;DHT22;11110;52.386;16.940;2023-03-24T02:50:51;24.60;43.30
21891;DHT22;11110;52.386;16.940;2023-03-24T02:53:26;24.60;44.00
21891;DHT22;11110;52.386;16.940;2023-03-24T02:56:42;24.40;43.30
21891;DHT22;11110;52.386;16.940;2023-03-24T02:59:29;24.50;43.60
21891;DHT22;11110;52.386;16.940;2023-03-24T03:02:06;24.50;43.60
21891;DHT22;11110;52.386;16.940;2023-03-24T03:04:48;24.40;43.60
21891;DHT22;11110;52.386;16.940;2023-03-24T03:07:21;24.40;43.60
21891;DHT22;11110;52.386;16.940;2023-03-24T03:09:56;24.40;43.70
21891;DHT22;11110;52.386;16.940;2023-03-24T03:12:32;24.40;43.70
21891;DHT22;11110;52.386;16.940;2023-03-24T03:15:04;24.50;43.70
21891;DHT22;11110;52.386;16.940;2023-03-24T03:17:37;24.40;43.60
21891;DHT22;11110;52.386;16.940;2023-03-24T03:20:10;24.40;43.60
21891;DHT22;11110;52.386;16.940;2023-03-24T03:22:45;24.40;43.60
21891;DHT22;11110;52.386;16.940;2023-03-24T03:25:19;24.40;43.60
21891;DHT22;11110;52.386;16.940;2023-03-24T03:27:51;24.50;43.70
21891;DHT22;11110;52.386;16.940;2023-03-24T03:30:23;24.50;43.60
21891;DHT22;11110;52.386;16.940;2023-03-24T03:32:55;24.50;43.60
21891;DHT22;11110;52.386;16.940;2023-03-24T03:35:29;24.50;43.60
21891;DHT22;11110;52.386;16.940;2023-03-24T03:38:09;24.50;43.70
21891;DHT22;11110;52.386;16.940;2023-03-24T03:40:48;24.50;43.70
21891;DHT22;11110;52.386;16.940;2023-03-24T03:43:25;24.50;43.70
21891;DHT22;11110;52.386;16.940;2023-03-24T03:45:54;24.50;43.70
21891;DHT22;11110;52.386;16.940;2023-03-24T03:48:30;24.50;43.60
21891;DHT22;11110;52.386;16.940;2023-03-24T03:50:59;24.50;43.60
21891;DHT22;11110;52.386;16.940;2023-03-24T03:53:47;24.50;43.60
21891;DHT22;11110;52.386;16.940;2023-03-24T03:56:19;24.50;43.60
21891;DHT22;11110;52.386;16.940;2023-03-24T03:59:00;24.50;43.60
21891;DHT22;11110;52.386;16.940;2023-03-24T04:01:33;24.50;43.60
21891;DHT22;11110;52.386;16.940;2023-03-24T04:04:35;24.50;43.70
21891;DHT22;11110;52.386;16.940;2023-03-24T04:07:37;24.50;43.70
21891;DHT22;11110;52.386;16.940;2023-03-24T04:10:48;24.40;43.80
21891;DHT22;11110;52.386;16.940;2023-03-24T04:13:25;24.40;43.90
21891;DHT22;11110;52.386;16.940;2023-03-24T04:16:15;24.50;43.90
21891;DHT22;11110;52.386;16.940;2023-03-24T04:19:12;24.40;43.90
21891;DHT22;11110;52.386;16.940;2023-03-24T04:21:51;24.60;43.80
21891;DHT22;11110;52.386;16.940;2023-03-24T04:24:35;24.60;43.70
21891;DHT22;11110;52.386;16.940;2023-03-24T04:27:11;24.60;43.70
21891;DHT22;11110;52.386;16.940;2023-03-24T04:29:48;24.50;43.70
21891;DHT22;11110;52.386;16.940;2023-03-24T04:32:29;24.60;43.60
21891;DHT22;11110;52.386;16.940;2023-03-24T04:35:03;24.60;44.40
21891;DHT22;11110;52.386;16.940;2023-03-24T04:38:05;24.50;43.70
21891;DHT22;11110;52.386;16.940;2023-03-24T04:40:39;24.30;43.80
21891;DHT22;11110;52.386;16.940;2023-03-24T04:43:13;24.40;44.00
21891;DHT22;11110;52.386;16.940;2023-03-24T04:45:43;24.40;44.70
21891;DHT22;11110;52.386;16.940;2023-03-24T04:48:24;24.30;44.00
21891;DHT22;11110;52.386;16.940;2023-03-24T04:51:11;24.30;44.10
21891;DHT22;11110;52.386;16.940;2023-03-24T04:53:52;24.30;44.20
21891;DHT22;11110;52.386;16.940;2023-03-24T04:56:34;24.40;44.20
21891;DHT22;11110;52.386;16.940;2023-03-24T04:59:08;24.40;44.20
21891;DHT22;11110;52.386;16.940;2023-03-24T05:01:39;24.30;44.30
21891;DHT22;11110;52.386;16.940;2023-03-24T05:04:26;24.20;44.30
21891;DHT22;11110;52.386;16.940;2023-03-24T05:07:01;24.20;44.30
21891;DHT22;11110;52.386;16.940;2023-03-24T05:09:31;24.20;44.40
21891;DHT22;11110;52.386;16.940;2023-03-24T05:12:01;24.20;44.40
21891;DHT22;11110;52.386;16.940;2023-03-24T05:14:38;24.20;44.40
21891;DHT22;11110;52.386;16.940;2023-03-24T05:17:06;24.30;44.50
21891;DHT22;11110;52.386;16.940;2023-03-24T05:19:37;24.30;44.40
21891;DHT22;11110;52.386;16.940;2023-03-24T05:22:05;24.40;44.40
21891;DHT22;11110;52.386;16.940;2023-03-24T05:24:34;24.30;44.40
21891;DHT22;11110;52.386;16.940;2023-03-24T05:27:03;24.40;44.40
21891;DHT22;11110;52.386;16.940;2023-03-24T05:29:32;24.50;44.30
21891;DHT22;11110;52.386;16.940;2023-03-24T05:32:01;24.50;44.20
21891;DHT22;11110;52.386;16.940;2023-03-24T05:34:45;24.40;44.40
21891;DHT22;11110;52.386;16.940;2023-03-24T05:37:14;24.50;44.30
21891;DHT22;11110;52.386;16.940;2023-03-24T05:39:48;24.60;44.30
21891;DHT22;11110;52.386;16.940;2023-03-24T05:42:38;24.70;44.20
21891;DHT22;11110;52.386;16.940;2023-03-24T05:45:09;24.70;44.10
21891;DHT22;11110;52.386;16.940;2023-03-24T05:47:38;24.90;44.10
21891;DHT22;11110;52.386;16.940;2023-03-24T05:50:09;24.80;44.00
21891;DHT22;11110;52.386;16.940;2023-03-24T05:52:38;24.90;43.90
21891;DHT22;11110;52.386;16.940;2023-03-24T05:55:44;24.90;44.00
21891;DHT22;11110;52.386;16.940;2023-03-24T05:58:33;24.90;43.90
21891;DHT22;11110;52.386;16.940;2023-03-24T06:01:06;24.90;44.00
21891;DHT22;11110;52.386;16.940;2023-03-24T06:03:37;25.00;44.10
21891;DHT22;11110;52.386;16.940;2023-03-24T06:06:12;25.00;44.10
21891;DHT22;11110;52.386;16.940;2023-03-24T06:08:43;25.10;44.10
21891;DHT22;11110;52.386;16.940;2023-03-24T06:11:16;25.10;44.10
21891;DHT22;11110;52.386;16.940;2023-03-24T06:13:52;25.10;44.10
21891;DHT22;11110;52.386;16.940;2023-03-24T06:16:26;25.20;44.20
21891;DHT22;11110;52.386;16.940;2023-03-24T06:19:00;25.20;44.20
21891;DHT22;11110;52.386;16.940;2023-03-24T06:21:58;25.20;44.20
21891;DHT22;11110;52.386;16.940;2023-03-24T06:24:36;25.30;44.30
21891;DHT22;11110;52.386;16.940;2023-03-24T06:27:09;25.30;44.30
21891;DHT22;11110;52.386;16.940;2023-03-24T06:29:38;25.30;44.40
21891;DHT22;11110;52.386;16.940;2023-03-24T06:32:09;25.30;44.40
21891;DHT22;11110;52.386;16.940;2023-03-24T06:34:41;25.30;44.40
21891;DHT22;11110;52.386;16.940;2023-03-24T06:37:37;25.30;44.40
21891;DHT22;11110;52.386;16.940;2023-03-24T06:40:11;25.40;44.40
21891;DHT22;11110;52.386;16.940;2023-03-24T06:42:48;25.50;44.50
21891;DHT22;11110;52.386;16.940;2023-03-24T06:45:17;25.40;44.50
21891;DHT22;11110;52.386;16.940;2023-03-24T06:47:48;25.40;44.60
21891;DHT22;11110;52.386;16.940;2023-03-24T06:50:23;25.40;44.70
21891;DHT22;11110;52.386;16.940;2023-03-24T06:52:55;25.40;44.90
21891;DHT22;11110;52.386;16.940;2023-03-24T06:55:26;25.50;45.00
21891;DHT22;11110;52.386;16.940;2023-03-24T06:57:55;25.60;45.20
21891;DHT22;11110;52.386;16.940;2023-03-24T07:00:41;25.60;45.20
21891;DHT22;11110;52.386;16.940;2023-03-24T07:03:31;25.70;45.30
21891;DHT22;11110;52.386;16.940;2023-03-24T07:06:20;25.80;45.60
21891;DHT22;11110;52.386;16.940;2023-03-24T07:08:55;25.80;45.60
21891;DHT22;11110;52.386;16.940;2023-03-24T07:11:27;25.90;45.70
21891;DHT22;11110;52.386;16.940;2023-03-24T07:13:58;25.90;45.80
21891;DHT22;11110;52.386;16.940;2023-03-24T07:19:29;25.90;46.00
21891;DHT22;11110;52.386;16.940;2023-03-24T07:22:21;25.80;46.00
21891;DHT22;11110;52.386;16.940;2023-03-24T07:25:11;25.80;46.10
21891;DHT22;11110;52.386;16.940;2023-03-24T07:27:53;25.90;46.20
21891;DHT22;11110;52.386;16.940;2023-03-24T07:30:23;25.90;46.10
21891;DHT22;11110;52.386;16.940;2023-03-24T07:33:07;25.90;46.00
21891;DHT22;11110;52.386;16.940;2023-03-24T07:35:40;26.00;46.10
21891;DHT22;11110;52.386;16.940;2023-03-24T07:38:10;26.00;46.10
21891;DHT22;11110;52.386;16.940;2023-03-24T07:40:40;26.10;46.10
21891;DHT22;11110;52.386;16.940;2023-03-24T07:43:09;26.10;46.00
21891;DHT22;11110;52.386;16.940;2023-03-24T07:46:01;26.10;46.00
21891;DHT22;11110;52.386;16.940;2023-03-24T07:48:32;26.10;46.00
21891;DHT22;11110;52.386;16.940;2023-03-24T07:51:01;26.20;46.00
21891;DHT22;11110;52.386;16.940;2023-03-24T07:53:50;26.20;45.90
21891;DHT22;11110;52.386;16.940;2023-03-24T07:56:28;26.10;45.80
21891;DHT22;11110;52.386;16.940;2023-03-24T07:58:59;26.20;45.90
21891;DHT22;11110;52.386;16.940;2023-03-24T08:01:31;26.20;45.90
21891;DHT22;11110;52.386;16.940;2023-03-24T08:04:10;26.30;45.80
21891;DHT22;11110;52.386;16.940;2023-03-24T08:07:00;26.30;45.80
21891;DHT22;11110;52.386;16.940;2023-03-24T08:09:29;26.30;45.70
21891;DHT22;11110;52.386;16.940;2023-03-24T08:11:59;26.30;45.60
21891;DHT22;11110;52.386;16.940;2023-03-24T08:14:40;26.40;45.60
21891;DHT22;11110;52.386;16.940;2023-03-24T08:17:08;26.30;45.50
21891;DHT22;11110;52.386;16.940;2023-03-24T08:19:37;26.40;45.60
21891;DHT22;11110;52.386;16.940;2023-03-24T08:22:24;26.40;45.50
21891;DHT22;11110;52.386;16.940;2023-03-24T08:24:53;26.50;45.60
21891;DHT22;11110;52.386;16.940;2023-03-24T08:27:23;26.40;45.30
21891;DHT22;11110;52.386;16.940;2023-03-24T08:29:52;26.50;45.40
21891;DHT22;11110;52.386;16.940;2023-03-24T08:32:20;26.50;45.20
21891;DHT22;11110;52.386;16.940;2023-03-24T08:34:49;26.60;45.10
21891;DHT22;11110;52.386;16.940;2023-03-24T08:37:18;26.60;45.00
21891;DHT22;11110;52.386;16.940;2023-03-24T08:39:47;26.60;45.00
21891;DHT22;11110;52.386;16.940;2023-03-24T08:42:15;26.70;45.10
21891;DHT22;11110;52.386;16.940;2023-03-24T08:44:45;26.70;44.90
21891;DHT22;11110;52.386;16.940;2023-03-24T08:47:14;26.70;44.80
21891;DHT22;11110;52.386;16.940;2023-03-24T08:49:42;26.70;44.80
21891;DHT22;11110;52.386;16.940;2023-03-24T08:52:11;26.80;44.90
21891;DHT22;11110;52.386;16.940;2023-03-24T08:54:40;26.80;44.80
21891;DHT22;11110;52.386;16.940;2023-03-24T08:57:09;26.80;44.70
21891;DHT22;11110;52.386;16.940;2023-03-24T08:59:38;26.90;44.70
21891;DHT22;11110;52.386;16.940;2023-03-24T09:02:08;27.00;44.70
21891;DHT22;11110;52.386;16.940;2023-03-24T09:04:37;27.00;44.40
21891;DHT22;11110;52.386;16.940;2023-03-24T09:07:08;27.00;44.40
21891;DHT22;11110;52.386;16.940;2023-03-24T09:09:38;27.10;44.30
21891;DHT22;11110;52.386;16.940;2023-03-24T09:12:06;27.10;44.10
21891;DHT22;11110;52.386;16.940;2023-03-24T09:14:36;27.10;44.00
21891;DHT22;11110;52.386;16.940;2023-03-24T09:17:04;27.20;43.90
21891;DHT22;11110;52.386;16.940;2023-03-24T09:19:35;27.20;43.80
21891;DHT22;11110;52.386;16.940;2023-03-24T09:22:04;27.40;43.70
21891;DHT22;11110;52.386;16.940;2023-03-24T09:24:33;27.50;43.40
21891;DHT22;11110;52.386;16.940;2023-03-24T09:27:01;27.50;43.40
21891;DHT22;11110;52.386;16.940;2023-03-24T09:29:30;27.50;43.20
21891;DHT22;11110;52.386;16.940;2023-03-24T09:31:59;27.50;43.30
21891;DHT22;11110;52.386;16.940;2023-03-24T09:34:28;27.60;43.00
21891;DHT22;11110;52.386;16.940;2023-03-24T09:36:58;27.60;43.00
21891;DHT22;11110;52.386;16.940;2023-03-24T09:39:27;27.70;42.90
21891;DHT22;11110;52.386;16.940;2023-03-24T09:41:55;27.70;42.90
21891;DHT22;11110;52.386;16.940;2023-03-24T09:44:26;27.70;42.80
21891;DHT22;11110;52.386;16.940;2023-03-24T09:47:00;27.60;42.80
21891;DHT22;11110;52.386;16.940;2023-03-24T09:49:33;27.70;42.80
21891;DHT22;11110;52.386;16.940;2023-03-24T09:52:06;27.70;42.80
21891;DHT22;11110;52.386;16.940;2023-03-24T09:54:41;27.80;42.50
21891;DHT22;11110;52.386;16.940;2023-03-24T09:57:16;27.80;42.30
21891;DHT22;11110;52.386;16.940;2023-03-24T09:59:47;27.90;42.30
21891;DHT22;11110;52.386;16.940;2023-03-24T10:02:19;27.90;42.10
21891;DHT22;11110;52.386;16.940;2023-03-24T10:04:49;28.00;42.10
21891;DHT22;11110;52.386;16.940;2023-03-24T10:07:23;28.00;42.10
21891;DHT22;11110;52.386;16.940;2023-03-24T10:09:55;28.00;42.00
21891;DHT22;11110;52.386;16.940;2023-03-24T10:12:33;28.10;42.00
21891;DHT22;11110;52.386;16.940;2023-03-24T10:15:13;28.20;41.90
21891;DHT22;11110;52.386;16.940;2023-03-24T10:18:15;28.20;41.80
21891;DHT22;11110;52.386;16.940;2023-03-24T10:20:51;28.40;41.80
21891;DHT22;11110;52.386;16.940;2023-03-24T10:23:28;28.30;41.80
21891;DHT22;11110;52.386;16.940;2023-03-24T10:26:07;28.20;41.70
21891;DHT22;11110;52.386;16.940;2023-03-24T10:28:42;28.30;41.70
21891;DHT22;11110;52.386;16.940;2023-03-24T10:31:14;28.50;41.60
21891;DHT22;11110;52.386;16.940;2023-03-24T10:33:44;28.30;41.70
21891;DHT22;11110;52.386;16.940;2023-03-24T10:36:15;28.30;41.60
21891;DHT22;11110;52.386;16.940;2023-03-24T10:38:46;28.10;41.50
21891;DHT22;11110;52.386;16.940;2023-03-24T10:41:18;28.20;41.70
21891;DHT22;11110;52.386;16.940;2023-03-24T10:43:49;28.30;42.00
21891;DHT22;11110;52.386;16.940;2023-03-24T10:46:21;28.30;41.70
21891;DHT22;11110;52.386;16.940;2023-03-24T10:48:52;28.40;41.70
21891;DHT22;11110;52.386;16.940;2023-03-24T10:51:25;28.30;41.70
21891;DHT22;11110;52.386;16.940;2023-03-24T10:54:09;28.30;41.60
21891;DHT22;11110;52.386;16.940;2023-03-24T10:56:40;28.30;41.60
21891;DHT22;11110;52.386;16.940;2023-03-24T10:59:23;28.30;41.60
21891;DHT22;11110;52.386;16.940;2023-03-24T11:01:59;28.30;41.70
21891;DHT22;11110;52.386;16.940;2023-03-24T11:04:30;28.40;41.60
21891;DHT22;11110;52.386;16.940;2023-03-24T11:07:04;28.40;41.40
21891;DHT22;11110;52.386;16.940;2023-03-24T11:09:41;28.40;41.40
21891;DHT22;11110;52.386;16.940;2023-03-24T11:12:21;28.50;41.20
21891;DHT22;11110;52.386;16.940;2023-03-24T11:14:50;28.40;41.30
21891;DHT22;11110;52.386;16.940;2023-03-24T11:17:44;28.30;41.40
21891;DHT22;11110;52.386;16.940;2023-03-24T11:20:19;28.30;41.20
21891;DHT22;11110;52.386;16.940;2023-03-24T11:23:00;28.30;41.20
21891;DHT22;11110;52.386;16.940;2023-03-24T11:25:32;28.40;41.20
21891;DHT22;11110;52.386;16.940;2023-03-24T11:28:04;28.30;41.30
21891;DHT22;11110;52.386;16.940;2023-03-24T11:30:44;28.40;41.20
21891;DHT22;11110;52.386;16.940;2023-03-24T11:33:19;28.40;41.20
21891;DHT22;11110;52.386;16.940;2023-03-24T11:36:32;28.40;41.30
21891;DHT22;11110;52.386;16.940;2023-03-24T11:39:02;28.40;41.30
21891;DHT22;11110;52.386;16.940;2023-03-24T11:41:41;28.50;41.30
21891;DHT22;11110;52.386;16.940;2023-03-24T11:44:18;28.50;41.40
21891;DHT22;11110;52.386;16.940;2023-03-24T11:46:51;28.60;41.40
21891;DHT22;11110;52.386;16.940;2023-03-24T11:49:24;28.60;41.40
21891;DHT22;11110;52.386;16.940;2023-03-24T11:51:54;28.80;41.40
21891;DHT22;11110;52.386;16.940;2023-03-24T11:54:26;28.80;41.30
21891;DHT22;11110;52.386;16.940;2023-03-24T11:57:04;28.80;41.10
21891;DHT22;11110;52.386;16.940;2023-03-24T11:59:40;28.80;41.10
21891;DHT22;11110;52.386;16.940;2023-03-24T12:02:16;29.00;41.00
21891;DHT22;11110;52.386;16.940;2023-03-24T12:04:58;28.90;40.90
21891;DHT22;11110;52.386;16.940;2023-03-24T12:07:43;29.00;41.00
21891;DHT22;11110;52.386;16.940;2023-03-24T12:10:32;29.10;40.80
21891;DHT22;11110;52.386;16.940;2023-03-24T12:13:09;29.20;40.80
21891;DHT22;11110;52.386;16.940;2023-03-24T12:15:57;29.10;40.70
21891;DHT22;11110;52.386;16.940;2023-03-24T12:18:50;29.20;40.90
21891;DHT22;11110;52.386;16.940;2023-03-24T12:21:32;29.20;40.90
21891;DHT22;11110;52.386;16.940;2023-03-24T12:24:10;29.30;41.00
21891;DHT22;11110;52.386;16.940;2023-03-24T12:26:44;29.30;41.00
21891;DHT22;11110;52.386;16.940;2023-03-24T12:29:40;29.40;41.10
21891;DHT22;11110;52.386;16.940;2023-03-24T12:32:29;29.40;41.00
21891;DHT22;11110;52.386;16.940;2023-03-24T12:35:27;29.50;41.30
21891;DHT22;11110;52.386;16.940;2023-03-24T12:38:10;29.70;41.20
21891;DHT22;11110;52.386;16.940;2023-03-24T12:40:58;29.80;41.40
21891;DHT22;11110;52.386;16.940;2023-03-24T12:43:37;29.80;41.20
21891;DHT22;11110;52.386;16.940;2023-03-24T12:46:20;29.80;41.10
21891;DHT22;11110;52.386;16.940;2023-03-24T12:49:16;29.90;41.00
21891;DHT22;11110;52.386;16.940;2023-03-24T12:51:54;30.00;40.10
21891;DHT22;11110;52.386;16.940;2023-03-24T12:54:39;30.00;39.60
21891;DHT22;11110;52.386;16.940;2023-03-24T12:57:14;30.10;39.70
21891;DHT22;11110;52.386;16.940;2023-03-24T12:59:49;30.00;39.70
21891;DHT22;11110;52.386;16.940;2023-03-24T13:02:40;30.10;38.90
21891;DHT22;11110;52.386;16.940;2023-03-24T13:05:14;29.90;39.20
21891;DHT22;11110;52.386;16.940;2023-03-24T13:07:48;29.90;39.20
21891;DHT22;11110;52.386;16.940;2023-03-24T13:10:22;30.00;39.10
21891;DHT22;11110;52.386;16.940;2023-03-24T13:12:57;30.10;38.40
21891;DHT22;11110;52.386;16.940;2023-03-24T13:15:30;30.10;38.10
21891;DHT22;11110;52.386;16.940;2023-03-24T13:18:10;30.10;37.80
21891;DHT22;11110;52.386;16.940;2023-03-24T13:20:45;30.10;37.80
21891;DHT22;11110;52.386;16.940;2023-03-24T13:23:30;30.10;37.10
21891;DHT22;11110;52.386;16.940;2023-03-24T13:26:09;30.10;37.00
21891;DHT22;11110;52.386;16.940;2023-03-24T13:28:47;30.10;36.60
21891;DHT22;11110;52.386;16.940;2023-03-24T13:31:19;30.00;36.40
21891;DHT22;11110;52.386;16.940;2023-03-24T13:33:50;30.00;36.10
21891;DHT22;11110;52.386;16.940;2023-03-24T13:36:38;29.90;36.60
21891;DHT22;11110;52.386;16.940;2023-03-24T13:39:13;30.00;36.30
21891;DHT22;11110;52.386;16.940;2023-03-24T13:41:48;29.80;36.60
21891;DHT22;11110;52.386;16.940;2023-03-24T13:44:19;29.90;36.60
21891;DHT22;11110;52.386;16.940;2023-03-24T13:47:03;30.10;36.40
21891;DHT22;11110;52.386;16.940;2023-03-24T13:49:34;30.10;36.30
21891;DHT22;11110;52.386;16.940;2023-03-24T13:52:04;30.00;36.60
21891;DHT22;11110;52.386;16.940;2023-03-24T13:54:35;30.00;36.70
21891;DHT22;11110;52.386;16.940;2023-03-24T13:57:06;30.10;36.70
21891;DHT22;11110;52.386;16.940;2023-03-24T13:59:39;30.10;36.50
21891;DHT22;11110;52.386;16.940;2023-03-24T14:02:23;30.00;36.60
21891;DHT22;11110;52.386;16.940;2023-03-24T14:05:13;30.10;36.70
21891;DHT22;11110;52.386;16.940;2023-03-24T14:08:12;30.10;36.80
21891;DHT22;11110;52.386;16.940;2023-03-24T14:10:43;29.90;37.00
21891;DHT22;11110;52.386;16.940;2023-03-24T14:13:32;30.00;36.90
21891;DHT22;11110;52.386;16.940;2023-03-24T14:16:25;30.00;37.10
21891;DHT22;11110;52.386;16.940;2023-03-24T14:21:57;30.10;37.00
21891;DHT22;11110;52.386;16.940;2023-03-24T14:24:28;30.30;36.60
21891;DHT22;11110;52.386;16.940;2023-03-24T14:26:59;30.20;36.80
21891;DHT22;11110;52.386;16.940;2023-03-24T14:29:36;30.30;36.50
21891;DHT22;11110;52.386;16.940;2023-03-24T14:32:06;30.50;36.50
21891;DHT22;11110;52.386;16.940;2023-03-24T14:34:51;30.30;36.30
21891;DHT22;11110;52.386;16.940;2023-03-24T14:37:24;30.50;35.90
21891;DHT22;11110;52.386;16.940;2023-03-24T14:39:55;30.50;36.20
21891;DHT22;11110;52.386;16.940;2023-03-24T14:43:02;30.50;36.00
21891;DHT22;11110;52.386;16.940;2023-03-24T14:45:53;30.20;36.00
21891;DHT22;11110;52.386;16.940;2023-03-24T14:48:54;30.20;36.20
21891;DHT22;11110;52.386;16.940;2023-03-24T14:51:31;30.30;36.40
21891;DHT22;11110;52.386;16.940;2023-03-24T14:54:11;30.40;36.40
21891;DHT22;11110;52.386;16.940;2023-03-24T14:56:42;30.30;36.20
21891;DHT22;11110;52.386;16.940;2023-03-24T14:59:21;30.30;36.30
21891;DHT22;11110;52.386;16.940;2023-03-24T15:02:00;30.20;36.40
21891;DHT22;11110;52.386;16.940;2023-03-24T15:04:31;30.20;36.60
21891;DHT22;11110;52.386;16.940;2023-03-24T15:07:05;30.10;36.70
21891;DHT22;11110;52.386;16.940;2023-03-24T15:09:36;30.20;36.60
21891;DHT22;11110;52.386;16.940;2023-03-24T15:12:06;30.10;36.60
21891;DHT22;11110;52.386;16.940;2023-03-24T15:14:34;30.00;36.80
21891;DHT22;11110;52.386;16.940;2023-03-24T15:17:12;30.00;36.80
21891;DHT22;11110;52.386;16.940;2023-03-24T15:19:43;29.90;37.00
21891;DHT22;11110;52.386;16.940;2023-03-24T15:22:13;30.00;37.30
21891;DHT22;11110;52.386;16.940;2023-03-24T15:24:46;30.00;37.20
21891;DHT22;11110;52.386;16.940;2023-03-24T15:27:23;29.80;38.70
21891;DHT22;11110;52.386;16.940;2023-03-24T15:29:55;29.80;39.60
21891;DHT22;11110;52.386;16.940;2023-03-24T15:32:28;29.50;40.70
21891;DHT22;11110;52.386;16.940;2023-03-24T15:35:01;29.30;41.90
21891;DHT22;11110;52.386;16.940;2023-03-24T15:37:34;29.00;42.20
21891;DHT22;11110;52.386;16.940;2023-03-24T15:40:36;29.00;42.60
21891;DHT22;11110;52.386;16.940;2023-03-24T15:43:17;28.90;42.70
21891;DHT22;11110;52.386;16.940;2023-03-24T15:45:50;28.70;42.80
21891;DHT22;11110;52.386;16.940;2023-03-24T15:48:37;28.70;42.60
21891;DHT22;11110;52.386;16.940;2023-03-24T15:51:07;28.60;42.80
21891;DHT22;11110;52.386;16.940;2023-03-24T15:53:39;28.60;42.70
21891;DHT22;11110;52.386;16.940;2023-03-24T15:56:23;28.60;41.80
21891;DHT22;11110;52.386;16.940;2023-03-24T15:59:11;28.40;41.90
21891;DHT22;11110;52.386;16.940;2023-03-24T16:01:41;28.50;41.50
21891;DHT22;11110;52.386;16.940;2023-03-24T16:04:13;28.20;41.50
21891;DHT22;11110;52.386;16.940;2023-03-24T16:06:47;28.10;41.60
21891;DHT22;11110;52.386;16.940;2023-03-24T16:09:20;28.10;41.30
21891;DHT22;11110;52.386;16.940;2023-03-24T16:11:54;28.00;41.70
21891;DHT22;11110;52.386;16.940;2023-03-24T16:14:25;28.00;41.40
21891;DHT22;11110;52.386;16.940;2023-03-24T16:16:55;27.90;39.80
21891;DHT22;11110;52.386;16.940;2023-03-24T16:19:24;27.70;39.20
21891;DHT22;11110;52.386;16.940;2023-03-24T16:21:53;27.70;39.00
21891;DHT22;11110;52.386;16.940;2023-03-24T16:24:22;27.50;38.80